Flagstaff (FLG/KFLG)

Map

Destinations

Information

Location
Flagstaff, AZ
Local Time
16:26 / 4:26 pm
GMT Time
23:26 / 11:26 pm
Gates
1
No FAA reported delays
METAR KFLG 182257Z 21008KT 10SM CLR 12/M08 A3022 RMK AO2 SLP206 T01171083
TAF KFLG 181722Z 1818/1918 VRB05KT P6SM SCT250 FM182000 18008KT P6SM BKN250 FM191700 23010G20KT P6SM BKN250